createdAt,value
2018-09-04T00:00:30.171Z,15.50
2018-09-04T05:02:09.034Z,14.00
2018-09-04T05:04:37.230Z,14.10
2018-09-04T05:07:05.428Z,14.10
2018-09-04T05:09:33.631Z,14.20
2018-09-04T05:12:01.840Z,14.30
2018-09-04T05:14:31.120Z,14.30
2018-09-04T05:16:59.319Z,14.30
2018-09-04T05:19:27.508Z,14.30
2018-09-04T05:21:55.750Z,14.40
2018-09-04T05:24:24.025Z,14.40
2018-09-04T05:26:52.220Z,14.40
2018-09-04T05:29:20.459Z,14.50
2018-09-04T05:31:53.290Z,14.60
2018-09-04T05:34:23.235Z,14.70
2018-09-04T05:36:51.543Z,14.80
2018-09-04T05:39:19.667Z,14.90
2018-09-04T05:41:48.044Z,15.00
2018-09-04T05:44:16.295Z,15.10
2018-09-04T05:46:47.596Z,15.20
2018-09-04T05:49:18.281Z,15.30
2018-09-04T05:51:46.464Z,15.20
2018-09-04T05:54:14.661Z,15.40
2018-09-04T05:56:42.871Z,15.50
2018-09-04T05:59:11.980Z,15.70
2018-09-04T06:01:40.372Z,15.90
2018-09-04T06:04:08.566Z,16.20
2018-09-04T06:06:36.807Z,16.50
2018-09-04T06:09:05.711Z,16.70
2018-09-04T06:11:33.971Z,16.80
2018-09-04T06:14:02.296Z,16.80
2018-09-04T06:16:30.532Z,16.60
2018-09-04T06:18:58.758Z,16.40
2018-09-04T06:21:26.982Z,16.30
2018-09-04T06:23:55.218Z,16.20
2018-09-04T06:26:23.449Z,16.10
2018-09-04T06:28:51.655Z,16.00
2018-09-04T06:31:19.857Z,15.90
2018-09-04T06:33:48.073Z,15.80
2018-09-04T06:36:16.248Z,15.80
2018-09-04T06:38:45.526Z,15.90
2018-09-04T06:41:13.718Z,15.90
2018-09-04T06:43:41.951Z,16.00
2018-09-04T06:46:10.140Z,16.20
2018-09-04T06:48:38.361Z,16.30
2018-09-04T06:51:06.631Z,16.20
2018-09-04T06:53:34.880Z,16.30
2018-09-04T06:56:03.089Z,16.50
2018-09-04T06:58:31.287Z,16.60
2018-09-04T07:00:59.609Z,16.70
2018-09-04T07:03:28.914Z,16.90
2018-09-04T07:05:57.133Z,17.10
2018-09-04T07:08:25.360Z,17.40
2018-09-04T07:10:53.624Z,17.60
2018-09-04T07:13:21.938Z,17.60
2018-09-04T07:15:50.177Z,17.80
2018-09-04T07:18:18.372Z,18.10
2018-09-04T07:20:46.649Z,18.40
2018-09-04T07:23:14.867Z,18.00
2018-09-04T07:25:43.087Z,18.00
2018-09-04T07:28:11.278Z,18.50
2018-09-04T07:30:39.503Z,19.00
2018-09-04T07:33:08.696Z,19.00
2018-09-04T07:35:38.544Z,19.00
2018-09-04T07:38:06.860Z,18.90
2018-09-04T07:40:35.056Z,19.20
2018-09-04T07:43:03.312Z,19.50
2018-09-04T07:45:31.557Z,19.70
2018-09-04T07:47:59.812Z,19.70
2018-09-04T07:50:28.108Z,19.50
2018-09-04T07:52:56.367Z,19.50
2018-09-04T07:55:24.681Z,19.70
2018-09-04T07:57:52.926Z,19.80
2018-09-04T08:00:21.207Z,19.60
2018-09-04T08:02:49.491Z,19.60
2018-09-04T08:05:17.812Z,19.80
2018-09-04T08:07:46.177Z,19.90
2018-09-04T08:10:14.532Z,20.00
2018-09-04T08:12:42.723Z,19.70
2018-09-04T08:15:12.123Z,19.70
2018-09-04T08:17:40.327Z,19.90
2018-09-04T08:20:08.529Z,20.00
2018-09-04T08:22:36.772Z,20.00
2018-09-04T08:25:04.952Z,19.90
2018-09-04T08:27:33.157Z,20.20
2018-09-04T08:30:01.412Z,20.30
2018-09-04T08:32:29.619Z,20.20
2018-09-04T08:34:57.795Z,20.20
2018-09-04T08:37:26.012Z,20.30
2018-09-04T08:39:54.248Z,20.20
2018-09-04T08:42:22.384Z,20.40
2018-09-04T08:44:50.732Z,20.40
2018-09-04T08:47:19.341Z,20.40
2018-09-04T08:49:47.560Z,20.50
2018-09-04T08:52:15.940Z,20.40
2018-09-04T08:54:44.149Z,20.30
2018-09-04T08:57:12.384Z,20.30
2018-09-04T08:59:40.648Z,20.60
2018-09-04T09:02:12.210Z,20.90
2018-09-04T09:04:40.415Z,21.20
2018-09-04T09:07:08.686Z,21.10
2018-09-04T09:09:36.936Z,20.80
2018-09-04T09:12:05.164Z,20.50
2018-09-04T09:14:33.356Z,20.70
2018-09-04T09:17:01.580Z,20.60
2018-09-04T09:19:29.828Z,20.40
2018-09-04T09:21:58.079Z,20.70
2018-09-04T09:24:26.323Z,20.80
2018-09-04T09:26:54.640Z,20.40
2018-09-04T09:29:22.952Z,20.60
2018-09-04T09:31:51.143Z,20.80
2018-09-04T09:34:20.317Z,21.20
2018-09-04T09:36:48.606Z,21.20
2018-09-04T09:39:16.800Z,21.10
2018-09-04T09:41:45.046Z,21.30
2018-09-04T09:44:13.264Z,21.40
2018-09-04T09:46:41.523Z,21.60
2018-09-04T09:49:09.757Z,21.90
2018-09-04T09:51:38.115Z,22.00
2018-09-04T09:54:06.622Z,21.80
2018-09-04T09:56:34.824Z,22.00
2018-09-04T09:59:03.129Z,22.30
2018-09-04T10:01:35.711Z,22.40
2018-09-04T10:04:05.713Z,22.10
2018-09-04T10:06:33.881Z,22.10
2018-09-04T10:09:02.179Z,22.10
2018-09-04T10:11:30.456Z,22.60
2018-09-04T10:13:58.724Z,22.70
2018-09-04T10:16:26.919Z,23.00
2018-09-04T10:18:55.159Z,23.20
2018-09-04T10:21:23.458Z,23.00
2018-09-04T10:23:53.101Z,22.60
2018-09-04T10:26:23.070Z,23.00
2018-09-04T10:28:51.260Z,22.60
2018-09-04T10:31:19.491Z,22.60
2018-09-04T10:33:47.733Z,22.20
2018-09-04T10:36:16.847Z,22.30
2018-09-04T10:38:44.971Z,22.60
2018-09-04T10:41:14.416Z,22.90
2018-09-04T10:43:42.634Z,22.70
2018-09-04T10:46:15.768Z,22.90
2018-09-04T10:48:43.979Z,22.80
2018-09-04T10:51:13.269Z,23.10
2018-09-04T10:53:41.513Z,22.90
2018-09-04T10:56:09.703Z,22.80
2018-09-04T10:58:38.007Z,23.00
2018-09-04T11:01:06.320Z,23.20
2018-09-04T11:03:34.602Z,23.20
2018-09-04T11:06:03.839Z,23.00
2018-09-04T11:08:32.955Z,23.00
2018-09-04T11:11:01.260Z,23.40
2018-09-04T11:13:29.474Z,23.20
2018-09-04T11:15:57.735Z,23.30
2018-09-04T11:18:25.980Z,23.30
2018-09-04T11:20:56.282Z,23.40
2018-09-04T11:23:24.518Z,23.20
2018-09-04T11:25:52.740Z,23.40
2018-09-04T11:28:23.015Z,23.60
2018-09-04T11:30:51.252Z,23.30
2018-09-04T11:33:19.572Z,23.10
2018-09-04T11:35:47.841Z,23.40
2018-09-04T11:38:16.071Z,23.60
2018-09-04T11:40:45.450Z,23.40
2018-09-04T11:43:13.605Z,23.00
2018-09-04T11:45:41.939Z,22.70
2018-09-04T11:48:14.440Z,22.90
2018-09-04T11:50:42.965Z,23.10
2018-09-04T11:53:11.561Z,23.10
2018-09-04T11:55:39.956Z,23.20
2018-09-04T11:58:08.239Z,23.30
2018-09-04T12:00:39.338Z,23.60
2018-09-04T12:03:09.826Z,23.60
2018-09-04T12:05:38.082Z,24.00
2018-09-04T12:08:06.291Z,24.40
2018-09-04T12:10:34.516Z,24.70
2018-09-04T12:13:02.759Z,24.30
2018-09-04T12:15:30.970Z,24.50
2018-09-04T12:17:59.323Z,24.70
2018-09-04T12:20:51.991Z,24.90
2018-09-04T12:23:20.268Z,24.50
2018-09-04T12:25:49.988Z,24.60
2018-09-04T12:28:18.188Z,24.70
2018-09-04T12:30:46.457Z,24.70
2018-09-04T12:33:14.697Z,24.50
2018-09-04T12:35:42.883Z,24.40
2018-09-04T12:38:12.627Z,24.30
2018-09-04T12:40:42.036Z,24.10
2018-09-04T12:43:10.249Z,23.80
2018-09-04T12:45:44.091Z,23.70
2018-09-04T12:48:16.614Z,23.30
2018-09-04T12:50:44.869Z,23.60
2018-09-04T12:53:13.112Z,23.50
2018-09-04T12:55:41.332Z,23.50
2018-09-04T12:58:09.559Z,23.70
2018-09-04T13:00:37.756Z,23.80
2018-09-04T13:03:06.006Z,23.50
2018-09-04T13:05:34.200Z,23.10
2018-09-04T13:08:02.448Z,23.00
2018-09-04T13:10:30.718Z,23.10
2018-09-04T13:12:58.955Z,23.20
2018-09-04T13:15:27.186Z,23.20
2018-09-04T13:17:55.505Z,23.10
2018-09-04T13:20:23.783Z,22.90
2018-09-04T13:22:52.001Z,23.10
2018-09-04T13:25:20.223Z,23.20
2018-09-04T13:27:48.465Z,23.20
2018-09-04T13:30:17.609Z,23.10
2018-09-04T13:32:46.083Z,23.00
2018-09-04T13:35:14.355Z,22.90
2018-09-04T13:37:42.570Z,22.90
2018-09-04T13:40:10.905Z,22.90
2018-09-04T13:42:39.707Z,22.80
2018-09-04T13:45:09.803Z,22.80
2018-09-04T13:47:37.987Z,22.70
2018-09-04T13:50:06.212Z,22.80
2018-09-04T13:52:34.432Z,22.80
2018-09-04T13:55:02.680Z,22.90
2018-09-04T13:57:31.099Z,22.90
2018-09-04T13:59:59.402Z,22.90
2018-09-04T14:02:27.687Z,22.90
2018-09-04T14:04:55.988Z,23.00
2018-09-04T14:07:24.289Z,22.90
2018-09-04T14:09:52.527Z,23.00
2018-09-04T14:12:21.380Z,23.10
2018-09-04T14:14:49.865Z,23.10
2018-09-04T14:17:19.567Z,23.00
2018-09-04T14:19:47.824Z,23.00
2018-09-04T14:22:16.529Z,23.10
2018-09-04T14:24:44.928Z,23.00
2018-09-04T14:27:13.198Z,23.20
2018-09-04T14:30:15.538Z,23.20
2018-09-04T14:32:09.752Z,23.20
2018-09-04T14:34:40.045Z,23.10
2018-09-04T14:37:08.376Z,23.00
2018-09-04T14:39:36.630Z,23.10
2018-09-04T14:42:04.936Z,23.10
2018-09-04T14:44:33.198Z,23.10
2018-09-04T14:47:01.422Z,23.00
2018-09-04T14:49:29.682Z,23.00
2018-09-04T14:51:57.955Z,23.00
2018-09-04T14:54:26.453Z,22.90
2018-09-04T14:56:54.843Z,23.10
2018-09-04T14:59:23.117Z,23.20
2018-09-04T15:01:51.388Z,23.40
2018-09-04T15:04:19.616Z,23.40
2018-09-04T15:06:47.840Z,23.30
2018-09-04T15:09:16.113Z,23.30
2018-09-04T15:11:44.313Z,23.40
2018-09-04T15:14:12.553Z,23.50
2018-09-04T15:16:42.991Z,23.20
2018-09-04T15:19:11.188Z,23.10
2018-09-04T15:24:14.241Z,23.40
2018-09-04T15:26:42.450Z,23.40
2018-09-04T15:29:10.696Z,23.60
2018-09-04T15:31:38.938Z,23.40
2018-09-04T15:34:07.230Z,23.30
2018-09-04T15:36:35.467Z,23.50
2018-09-04T15:39:05.111Z,23.50
2018-09-04T15:41:33.356Z,23.30
2018-09-04T15:44:01.608Z,23.30
2018-09-04T15:46:29.915Z,23.30
2018-09-04T15:49:03.457Z,23.40
2018-09-04T15:51:31.689Z,23.50
2018-09-04T15:54:00.143Z,23.60
2018-09-04T15:56:28.430Z,23.70
2018-09-04T15:58:56.720Z,23.60
2018-09-04T16:01:24.976Z,23.70
2018-09-04T16:03:53.196Z,23.70
2018-09-04T16:06:21.519Z,23.70
2018-09-04T16:08:49.822Z,23.80
2018-09-04T16:11:18.036Z,24.00
2018-09-04T16:13:46.275Z,24.10
2018-09-04T16:16:14.468Z,24.30
2018-09-04T16:18:42.764Z,24.10
2018-09-04T16:21:11.002Z,24.00
2018-09-04T16:23:39.376Z,23.90
2018-09-04T16:26:07.570Z,23.80
2018-09-04T16:28:36.240Z,23.70
2018-09-04T16:31:04.579Z,23.80
2018-09-04T16:33:32.771Z,23.40
2018-09-04T16:36:01.079Z,23.40
2018-09-04T16:38:29.336Z,23.40
2018-09-04T16:40:57.710Z,23.40
2018-09-04T16:43:25.924Z,23.30
2018-09-04T16:45:54.181Z,23.20
2018-09-04T16:48:22.459Z,23.00
2018-09-04T16:50:50.656Z,23.00
2018-09-04T16:53:18.865Z,23.00
2018-09-04T16:55:47.100Z,22.90
2018-09-04T16:58:15.405Z,22.90
2018-09-04T17:00:43.634Z,22.90
2018-09-04T17:03:11.831Z,23.10
2018-09-04T17:05:40.025Z,23.20
2018-09-04T17:08:08.262Z,23.30
2018-09-04T17:10:36.492Z,23.30
2018-09-04T17:13:04.723Z,23.30
2018-09-04T17:15:34.069Z,23.30
2018-09-04T17:18:02.346Z,23.10
2018-09-04T17:20:30.578Z,23.00
2018-09-04T17:22:58.852Z,22.90
2018-09-04T17:25:27.388Z,22.80
2018-09-04T17:27:56.367Z,22.70
2018-09-04T17:30:24.623Z,22.70
2018-09-04T17:32:53.475Z,22.60
2018-09-04T17:35:22.281Z,22.50
2018-09-04T17:37:50.470Z,22.50
2018-09-04T17:40:18.675Z,22.40
2018-09-04T17:42:47.097Z,22.40
2018-09-04T17:45:15.285Z,22.30
2018-09-04T17:47:43.607Z,22.30
2018-09-04T17:50:11.744Z,22.20
2018-09-04T17:52:39.956Z,22.00
2018-09-04T17:55:08.209Z,21.90
2018-09-04T17:57:37.055Z,21.70
2018-09-04T18:00:05.739Z,21.60
2018-09-04T18:02:33.960Z,21.50
2018-09-04T18:05:02.245Z,21.40
2018-09-04T18:07:30.516Z,21.20
2018-09-04T18:09:58.827Z,21.10
2018-09-04T18:12:27.139Z,21.00
2018-09-04T18:14:55.377Z,20.80
2018-09-04T18:17:23.862Z,20.70
2018-09-04T18:19:52.120Z,20.60
2018-09-04T18:22:20.428Z,20.60
2018-09-04T18:24:48.619Z,20.50
2018-09-04T18:27:16.837Z,20.40
2018-09-04T18:29:45.043Z,20.30
2018-09-04T18:32:13.304Z,20.20
2018-09-04T18:34:41.531Z,20.20
2018-09-04T18:37:09.749Z,20.10
2018-09-04T18:39:37.941Z,20.10
2018-09-04T18:42:06.136Z,20.10
2018-09-04T18:44:34.338Z,20.10
2018-09-04T18:47:02.541Z,20.10
2018-09-04T18:49:30.853Z,20.10
2018-09-04T18:51:59.047Z,20.10
2018-09-04T18:54:27.286Z,20.10
2018-09-04T18:57:01.973Z,20.00
2018-09-04T18:59:30.301Z,20.00
2018-09-04T19:02:05.234Z,19.90
2018-09-04T19:04:33.519Z,19.90
2018-09-04T19:07:01.864Z,19.80
2018-09-04T19:09:30.151Z,19.70
2018-09-04T19:11:58.380Z,19.60
2018-09-04T19:14:27.047Z,19.50
2018-09-04T19:16:56.041Z,19.50
2018-09-04T19:19:24.240Z,19.40
2018-09-04T19:21:52.490Z,19.40
2018-09-04T19:24:20.661Z,19.40
2018-09-04T19:26:48.849Z,19.40
2018-09-04T19:29:17.056Z,19.30
2018-09-04T19:31:45.285Z,19.30
2018-09-04T19:34:13.509Z,19.30
2018-09-04T19:36:41.763Z,19.40
2018-09-04T19:39:10.611Z,19.30
2018-09-04T19:41:38.819Z,19.30
2018-09-04T19:44:07.024Z,19.30
2018-09-04T19:46:35.268Z,19.30
2018-09-04T19:49:03.633Z,19.30
2018-09-04T19:51:31.856Z,19.40
2018-09-04T19:54:00.114Z,19.40
2018-09-04T19:56:28.363Z,19.40
2018-09-04T19:58:56.680Z,19.40
2018-09-04T20:01:24.940Z,19.40
2018-09-04T20:03:53.119Z,19.30
2018-09-04T20:06:21.369Z,19.30
2018-09-04T20:08:49.559Z,19.20
2018-09-04T20:11:17.783Z,19.20
2018-09-04T20:13:46.020Z,19.20
2018-09-04T20:16:14.217Z,19.10
2018-09-04T20:18:42.419Z,19.10
2018-09-04T20:21:10.628Z,19.00
2018-09-04T20:23:38.876Z,19.10
2018-09-04T20:26:07.090Z,19.10
2018-09-04T20:28:35.283Z,19.00
2018-09-04T20:31:03.536Z,18.90
2018-09-04T20:33:31.757Z,18.90
2018-09-04T20:36:00.028Z,18.80
2018-09-04T20:38:28.199Z,18.80
2018-09-04T20:40:56.415Z,18.70
2018-09-04T20:43:24.591Z,18.70
2018-09-04T20:45:52.769Z,18.60
2018-09-04T20:48:21.067Z,18.60
2018-09-04T20:50:49.614Z,18.60
2018-09-04T20:53:17.955Z,18.60
2018-09-04T20:55:46.189Z,18.60
2018-09-04T20:58:25.744Z,18.50
2018-09-04T21:01:05.380Z,18.40
2018-09-04T21:03:45.044Z,18.40
2018-09-04T21:06:24.667Z,18.40
2018-09-04T21:09:02.463Z,18.40
2018-09-04T21:11:31.235Z,18.30
2018-09-04T21:13:59.452Z,18.20
2018-09-04T21:16:27.668Z,18.20
2018-09-04T21:18:55.884Z,18.30
2018-09-04T21:21:24.133Z,18.30
2018-09-04T21:23:52.291Z,18.30
2018-09-04T21:26:20.609Z,18.40
2018-09-04T21:28:48.865Z,18.40
2018-09-04T21:31:17.056Z,18.40
2018-09-04T21:33:45.237Z,18.40
2018-09-04T21:36:13.460Z,18.30
2018-09-04T21:38:41.664Z,18.40
2018-09-04T21:41:09.850Z,18.40
2018-09-04T21:43:38.056Z,18.40
2018-09-04T21:46:06.439Z,18.40
2018-09-04T21:48:34.697Z,18.40
2018-09-04T21:51:02.950Z,18.40
2018-09-04T21:53:31.255Z,18.30
2018-09-04T21:55:59.584Z,18.30
2018-09-04T21:58:30.851Z,18.30
2018-09-04T22:00:59.429Z,18.20
2018-09-04T22:03:27.618Z,18.10
2018-09-04T22:05:55.959Z,18.10
2018-09-04T22:08:24.168Z,18.00
2018-09-04T22:10:52.361Z,18.00
2018-09-04T22:13:20.626Z,18.00
2018-09-04T22:15:48.817Z,18.10
2018-09-04T22:18:17.012Z,18.00
2018-09-04T22:20:45.296Z,18.00
2018-09-04T22:23:13.559Z,17.90
2018-09-04T22:25:41.744Z,17.80
2018-09-04T22:28:10.008Z,17.70
2018-09-04T22:30:38.207Z,17.60
2018-09-04T22:33:06.516Z,17.50
2018-09-04T22:35:34.715Z,17.40
2018-09-04T22:38:02.995Z,17.40
2018-09-04T22:40:31.190Z,17.40
2018-09-04T22:42:59.429Z,17.30
2018-09-04T22:45:27.647Z,17.30
2018-09-04T22:47:58.040Z,17.20
2018-09-04T22:50:31.575Z,17.20
2018-09-04T22:52:59.787Z,17.20
2018-09-04T22:55:27.978Z,17.20
2018-09-04T22:57:56.206Z,17.20
2018-09-04T23:00:30.841Z,17.10
2018-09-04T23:02:59.012Z,17.00
2018-09-04T23:05:27.199Z,16.90
2018-09-04T23:07:55.468Z,16.90
2018-09-04T23:10:23.697Z,17.00
2018-09-04T23:12:51.956Z,16.90
2018-09-04T23:15:20.259Z,16.90
2018-09-04T23:17:48.456Z,16.80
2018-09-04T23:20:16.631Z,16.70
2018-09-04T23:22:44.907Z,16.70
2018-09-04T23:25:13.094Z,16.70
2018-09-04T23:27:41.271Z,16.70
2018-09-04T23:30:09.446Z,16.70
2018-09-04T23:32:38.552Z,16.70
2018-09-04T23:35:06.919Z,16.70
2018-09-04T23:37:35.132Z,16.70
2018-09-04T23:40:03.439Z,16.70
2018-09-04T23:42:32.507Z,16.60
2018-09-04T23:45:01.715Z,16.60
2018-09-04T23:47:29.902Z,16.50
2018-09-04T23:49:58.089Z,16.40
2018-09-04T23:52:26.280Z,16.40
2018-09-04T23:54:54.523Z,16.30
2018-09-04T23:57:22.707Z,16.40
2018-09-04T23:59:50.908Z,16.30
